Almirante Brown, Argentina
Current Conditions -  °F | °C
As of 8:00 AM on Sunday 21 Dec 2014 (Local Time) from SAEZ Reporting Station
Light Rain Light Rain  
Wind Chill: 57°   Ceiling: 7000
Heat Index: 57°   Visibility: 6mi
Dew Point: 50°   Wind: 5mph
Humidity: 77%   Direction: 100°E
Pressure: 29.8"   Gusts: NA
Location:  34.8°S, 58.38°W
Report Text: SAEZ 211100Z 10004KT 9000 -RA BR FEW019 BKN070 14/10 Q1009
Loading
Personal Weather Stations






























Interactive Weather Map New forecast layout! Learn more

10-Day Weather Forecast

Advertisements
Track Severe Weather on mobile